CCA1916 ZHCC-ZBAA
Flight info
| Callsign | CCA1916 |
|---|---|
| Flight time | 1h 3m |
| Altitude | 35100 |
| Route | OKT9W OKTOX W56 DUGEB DUGEB6J |
| Aircraft | B738/M-SDE2E3FGHIRWXY/LB1 |
Departure
| Time | 2026-05-08 15:57 |
|---|---|
| Airport | Zhengzhou Xinzheng International Airport (ZHCC) |
Arrival
| Time | 2026-05-08 17:00 |
|---|---|
| Airport | Beijing Capital International Airport (ZBAA) |
| Time | Latitude | Longitude | Altitude | Speed | Heading |
|---|---|---|---|---|---|
| 2026-05-08 15:40 | 34.53220 | 113.85036 | 494 ft | 0 kts | 230° |
| 2026-05-08 15:48 | 34.53227 | 113.85045 | 494 ft | 2 kts | 230° |
| 2026-05-08 15:49 | 34.53236 | 113.85059 | 494 ft | 2 kts | 230° |
| 2026-05-08 15:49 | 34.53246 | 113.85073 | 495 ft | 2 kts | 230° |
| 2026-05-08 15:49 | 34.53256 | 113.85087 | 495 ft | 2 kts | 230° |
| 2026-05-08 15:49 | 34.53266 | 113.85101 | 494 ft | 2 kts | 230° |
| 2026-05-08 15:50 | 34.53275 | 113.85115 | 494 ft | 2 kts | 230° |
| 2026-05-08 15:50 | 34.53285 | 113.85129 | 494 ft | 2 kts | 232° |
| 2026-05-08 15:50 | 34.53292 | 113.85145 | 494 ft | 2 kts | 253° |
| 2026-05-08 15:50 | 34.53294 | 113.85162 | 493 ft | 2 kts | 269° |
| 2026-05-08 15:51 | 34.53293 | 113.85180 | 493 ft | 2 kts | 285° |
| 2026-05-08 15:51 | 34.53291 | 113.85189 | 493 ft | 1 kts | 295° |
| 2026-05-08 15:51 | 34.53289 | 113.85193 | 493 ft | 0 kts | 292° |
| 2026-05-08 15:52 | 34.53299 | 113.85162 | 493 ft | 9 kts | 291° |
| 2026-05-08 15:53 | 34.53328 | 113.85068 | 495 ft | 12 kts | 290° |
| 2026-05-08 15:53 | 34.53356 | 113.84983 | 497 ft | 9 kts | 292° |
| 2026-05-08 15:53 | 34.53383 | 113.84902 | 497 ft | 13 kts | 292° |
| 2026-05-08 15:53 | 34.53424 | 113.84785 | 499 ft | 15 kts | 292° |
| 2026-05-08 15:54 | 34.53498 | 113.84736 | 501 ft | 12 kts | 7° |
| 2026-05-08 15:54 | 34.53554 | 113.84681 | 502 ft | 10 kts | 292° |
| 2026-05-08 15:54 | 34.53579 | 113.84605 | 504 ft | 9 kts | 291° |
| 2026-05-08 15:54 | 34.53614 | 113.84530 | 505 ft | 10 kts | 296° |
| 2026-05-08 15:55 | 34.53639 | 113.84435 | 507 ft | 12 kts | 287° |
| 2026-05-08 15:55 | 34.53737 | 113.84225 | 508 ft | 16 kts | 357° |
| 2026-05-08 15:55 | 34.53844 | 113.84275 | 508 ft | 15 kts | 36° |
| 2026-05-08 15:56 | 34.53844 | 113.84383 | 508 ft | 13 kts | 111° |
| 2026-05-08 15:56 | 34.53786 | 113.84555 | 505 ft | 50 kts | 113° |
| 2026-05-08 15:56 | 34.53542 | 113.85265 | 494 ft | 129 kts | 114° |
| 2026-05-08 15:56 | 34.53139 | 113.86530 | 621 ft | 180 kts | 112° |
| 2026-05-08 15:57 | 34.52679 | 113.87897 | 1575 ft | 175 kts | 115° |
| 2026-05-08 15:57 | 34.52222 | 113.89263 | 2372 ft | 180 kts | 115° |
| 2026-05-08 15:57 | 34.51740 | 113.90694 | 2948 ft | 192 kts | 115° |
| 2026-05-08 15:57 | 34.51221 | 113.92224 | 3505 ft | 205 kts | 115° |
| 2026-05-08 15:58 | 34.50663 | 113.93870 | 4029 ft | 223 kts | 115° |
| 2026-05-08 15:58 | 34.50043 | 113.95705 | 4592 ft | 243 kts | 115° |
| 2026-05-08 15:58 | 34.49392 | 113.97636 | 5277 ft | 256 kts | 115° |
| 2026-05-08 15:58 | 34.48708 | 113.99674 | 5987 ft | 268 kts | 115° |
| 2026-05-08 15:59 | 34.48008 | 114.01759 | 6846 ft | 273 kts | 115° |
| 2026-05-08 15:59 | 34.47293 | 114.03876 | 7702 ft | 277 kts | 116° |
| 2026-05-08 15:59 | 34.46556 | 114.06027 | 8622 ft | 279 kts | 115° |
| 2026-05-08 15:59 | 34.46024 | 114.08315 | 9476 ft | 287 kts | 104° |
| 2026-05-08 16:00 | 34.45774 | 114.10706 | 10283 ft | 293 kts | 100° |
| 2026-05-08 16:00 | 34.45591 | 114.13210 | 10813 ft | 308 kts | 99° |
| 2026-05-08 16:00 | 34.45379 | 114.15857 | 11289 ft | 324 kts | 100° |
| 2026-05-08 16:00 | 34.45120 | 114.18638 | 11756 ft | 340 kts | 101° |
| 2026-05-08 16:01 | 34.44826 | 114.21516 | 12204 ft | 355 kts | 101° |
| 2026-05-08 16:01 | 34.44505 | 114.24558 | 12622 ft | 371 kts | 101° |
| 2026-05-08 16:01 | 34.44167 | 114.27721 | 13020 ft | 387 kts | 101° |
| 2026-05-08 16:01 | 34.43825 | 114.30959 | 13636 ft | 395 kts | 101° |
| 2026-05-08 16:02 | 34.43475 | 114.34276 | 14191 ft | 404 kts | 101° |
| 2026-05-08 16:02 | 34.43118 | 114.37685 | 14767 ft | 412 kts | 100° |
| 2026-05-08 16:02 | 34.42899 | 114.41170 | 15133 ft | 428 kts | 94° |
| 2026-05-08 16:02 | 34.43093 | 114.44831 | 15454 ft | 445 kts | 84° |
| 2026-05-08 16:03 | 34.43763 | 114.48539 | 15847 ft | 458 kts | 77° |
| 2026-05-08 16:03 | 34.44756 | 114.52247 | 16319 ft | 468 kts | 68° |
| 2026-05-08 16:03 | 34.46520 | 114.55572 | 16869 ft | 473 kts | 47° |
| 2026-05-08 16:03 | 34.49066 | 114.58113 | 17310 ft | 477 kts | 28° |
| 2026-05-08 16:04 | 34.52084 | 114.59647 | 17797 ft | 476 kts | 11° |
| 2026-05-08 16:04 | 34.55354 | 114.60194 | 18473 ft | 468 kts | 356° |
| 2026-05-08 16:04 | 34.58575 | 114.60010 | 19088 ft | 464 kts | 348° |
| 2026-05-08 16:04 | 34.61764 | 114.59606 | 19977 ft | 459 kts | 348° |
| 2026-05-08 16:05 | 34.64967 | 114.59300 | 20366 ft | 468 kts | 351° |
| 2026-05-08 16:05 | 34.68238 | 114.59157 | 20915 ft | 473 kts | 353° |
| 2026-05-08 16:05 | 34.71541 | 114.59167 | 21488 ft | 476 kts | 355° |
| 2026-05-08 16:05 | 34.74825 | 114.59300 | 22059 ft | 479 kts | 356° |
| 2026-05-08 16:06 | 34.78189 | 114.59521 | 22601 ft | 482 kts | 357° |
| 2026-05-08 16:06 | 34.81534 | 114.59793 | 23058 ft | 486 kts | 358° |
| 2026-05-08 16:06 | 34.84923 | 114.60101 | 23528 ft | 490 kts | 358° |
| 2026-05-08 16:06 | 34.88311 | 114.60428 | 24074 ft | 492 kts | 358° |
| 2026-05-08 16:07 | 34.91742 | 114.60766 | 24524 ft | 495 kts | 358° |
| 2026-05-08 16:07 | 34.95185 | 114.61108 | 25002 ft | 498 kts | 358° |
| 2026-05-08 16:07 | 34.98640 | 114.61449 | 25409 ft | 501 kts | 358° |
| 2026-05-08 16:07 | 35.02130 | 114.61793 | 25743 ft | 506 kts | 358° |
| 2026-05-08 16:08 | 35.05618 | 114.62138 | 26468 ft | 502 kts | 358° |
| 2026-05-08 16:08 | 35.09117 | 114.62486 | 27172 ft | 498 kts | 358° |
| 2026-05-08 16:08 | 35.12536 | 114.62824 | 27811 ft | 495 kts | 358° |
| 2026-05-08 16:08 | 35.15945 | 114.63159 | 28471 ft | 492 kts | 357° |
| 2026-05-08 16:09 | 35.19325 | 114.63490 | 29010 ft | 491 kts | 357° |
| 2026-05-08 16:09 | 35.22759 | 114.63822 | 29622 ft | 488 kts | 357° |
| 2026-05-08 16:09 | 35.26107 | 114.64144 | 30085 ft | 489 kts | 357° |
| 2026-05-08 16:09 | 35.29509 | 114.64472 | 30664 ft | 487 kts | 357° |
| 2026-05-08 16:10 | 35.32882 | 114.64800 | 31321 ft | 483 kts | 357° |
| 2026-05-08 16:10 | 35.36182 | 114.65121 | 31948 ft | 478 kts | 358° |
| 2026-05-08 16:10 | 35.39495 | 114.65445 | 32524 ft | 475 kts | 358° |
| 2026-05-08 16:10 | 35.42771 | 114.65764 | 32961 ft | 474 kts | 358° |
| 2026-05-08 16:11 | 35.46048 | 114.66080 | 33395 ft | 474 kts | 358° |
| 2026-05-08 16:11 | 35.49349 | 114.66399 | 33873 ft | 473 kts | 357° |
| 2026-05-08 16:11 | 35.52604 | 114.66716 | 34352 ft | 471 kts | 357° |
| 2026-05-08 16:11 | 35.55875 | 114.67036 | 34889 ft | 468 kts | 357° |
| 2026-05-08 16:12 | 35.62365 | 114.67665 | 34954 ft | 468 kts | 358° |
| 2026-05-08 16:12 | 35.68860 | 114.68296 | 34953 ft | 469 kts | 357° |
| 2026-05-08 16:13 | 35.75385 | 114.68930 | 34950 ft | 470 kts | 357° |
| 2026-05-08 16:13 | 35.81870 | 114.69565 | 34945 ft | 469 kts | 357° |
| 2026-05-08 16:14 | 35.88397 | 114.70204 | 34946 ft | 469 kts | 357° |
| 2026-05-08 16:14 | 35.94888 | 114.70836 | 34944 ft | 471 kts | 357° |
| 2026-05-08 16:15 | 36.01385 | 114.71471 | 34943 ft | 467 kts | 357° |
| 2026-05-08 16:15 | 36.07923 | 114.72102 | 34945 ft | 472 kts | 357° |
| 2026-05-08 16:16 | 36.14333 | 114.72728 | 34943 ft | 466 kts | 357° |
| 2026-05-08 16:16 | 36.20831 | 114.73362 | 34937 ft | 470 kts | 357° |
| 2026-05-08 16:17 | 36.27311 | 114.73996 | 34938 ft | 470 kts | 357° |
| 2026-05-08 16:17 | 36.33839 | 114.74715 | 34932 ft | 473 kts | 0° |
| 2026-05-08 16:18 | 36.40327 | 114.76617 | 34933 ft | 488 kts | 13° |
| 2026-05-08 16:18 | 36.46582 | 114.79884 | 34928 ft | 491 kts | 18° |
| 2026-05-08 16:19 | 36.52786 | 114.83569 | 34925 ft | 493 kts | 19° |
| 2026-05-08 16:19 | 36.58893 | 114.87257 | 34916 ft | 488 kts | 19° |
| 2026-05-08 16:20 | 36.65030 | 114.90916 | 34916 ft | 489 kts | 19° |
| 2026-05-08 16:20 | 36.71250 | 114.94570 | 34913 ft | 494 kts | 19° |
| 2026-05-08 16:21 | 36.77407 | 114.98175 | 34911 ft | 491 kts | 19° |
| 2026-05-08 16:21 | 36.83584 | 115.01791 | 34911 ft | 490 kts | 19° |
| 2026-05-08 16:22 | 36.89784 | 115.05418 | 34909 ft | 491 kts | 19° |
| 2026-05-08 16:22 | 36.95931 | 115.09023 | 34911 ft | 489 kts | 19° |
| 2026-05-08 16:23 | 37.02035 | 115.12612 | 34898 ft | 477 kts | 19° |
| 2026-05-08 16:23 | 37.04974 | 115.14359 | 34946 ft | 453 kts | 18° |
| 2026-05-08 16:23 | 37.07764 | 115.16019 | 34922 ft | 440 kts | 18° |
| 2026-05-08 16:24 | 37.10461 | 115.17621 | 34927 ft | 428 kts | 18° |
| 2026-05-08 16:24 | 37.13140 | 115.19192 | 34920 ft | 424 kts | 16° |
| 2026-05-08 16:24 | 37.18614 | 115.22092 | 34769 ft | 431 kts | 14° |
| 2026-05-08 16:25 | 37.21398 | 115.23504 | 34406 ft | 429 kts | 14° |
| 2026-05-08 16:25 | 37.24163 | 115.24907 | 33870 ft | 428 kts | 14° |
| 2026-05-08 16:25 | 37.26878 | 115.26293 | 33298 ft | 427 kts | 14° |
| 2026-05-08 16:25 | 37.29623 | 115.27703 | 32765 ft | 426 kts | 14° |
| 2026-05-08 16:26 | 37.32388 | 115.29130 | 32242 ft | 427 kts | 14° |
| 2026-05-08 16:26 | 37.35094 | 115.30533 | 31723 ft | 426 kts | 14° |
| 2026-05-08 16:26 | 37.37859 | 115.31971 | 31198 ft | 427 kts | 15° |
| 2026-05-08 16:26 | 37.40598 | 115.33398 | 30681 ft | 430 kts | 14° |
| 2026-05-08 16:27 | 37.43365 | 115.34845 | 30216 ft | 430 kts | 15° |
| 2026-05-08 16:27 | 37.46125 | 115.36286 | 29833 ft | 434 kts | 15° |
| 2026-05-08 16:27 | 37.48947 | 115.37762 | 29436 ft | 435 kts | 15° |
| 2026-05-08 16:27 | 37.51684 | 115.39201 | 29050 ft | 434 kts | 15° |
| 2026-05-08 16:28 | 37.54468 | 115.40665 | 28690 ft | 436 kts | 15° |
| 2026-05-08 16:28 | 37.57301 | 115.42153 | 28325 ft | 437 kts | 15° |
| 2026-05-08 16:28 | 37.60085 | 115.43619 | 27957 ft | 437 kts | 15° |
| 2026-05-08 16:28 | 37.62913 | 115.45109 | 27594 ft | 439 kts | 15° |
| 2026-05-08 16:29 | 37.65704 | 115.46581 | 27230 ft | 439 kts | 15° |
| 2026-05-08 16:29 | 37.68498 | 115.48055 | 26882 ft | 437 kts | 15° |
| 2026-05-08 16:29 | 37.71321 | 115.49545 | 26498 ft | 439 kts | 16° |
| 2026-05-08 16:29 | 37.74149 | 115.51037 | 26012 ft | 440 kts | 16° |
| 2026-05-08 16:30 | 37.76985 | 115.52535 | 25545 ft | 442 kts | 16° |
| 2026-05-08 16:30 | 37.79805 | 115.54028 | 25074 ft | 441 kts | 16° |
| 2026-05-08 16:30 | 37.82627 | 115.55523 | 24591 ft | 442 kts | 17° |
| 2026-05-08 16:30 | 37.85462 | 115.57027 | 24115 ft | 438 kts | 17° |
| 2026-05-08 16:31 | 37.88249 | 115.58504 | 23642 ft | 435 kts | 17° |
| 2026-05-08 16:31 | 37.91018 | 115.59975 | 23146 ft | 431 kts | 17° |
| 2026-05-08 16:31 | 37.93775 | 115.61441 | 22653 ft | 427 kts | 17° |
| 2026-05-08 16:31 | 37.96482 | 115.62883 | 22210 ft | 423 kts | 18° |
| 2026-05-08 16:32 | 37.99182 | 115.64321 | 21748 ft | 420 kts | 18° |
| 2026-05-08 16:32 | 38.01886 | 115.65762 | 21274 ft | 417 kts | 19° |
| 2026-05-08 16:32 | 38.04548 | 115.67182 | 20798 ft | 414 kts | 19° |
| 2026-05-08 16:32 | 38.07168 | 115.68581 | 20326 ft | 410 kts | 19° |
| 2026-05-08 16:33 | 38.09801 | 115.69987 | 19840 ft | 406 kts | 20° |
| 2026-05-08 16:33 | 38.12367 | 115.71358 | 19368 ft | 402 kts | 20° |
| 2026-05-08 16:33 | 38.14915 | 115.72720 | 18885 ft | 398 kts | 20° |
| 2026-05-08 16:33 | 38.17473 | 115.74086 | 18399 ft | 395 kts | 20° |
| 2026-05-08 16:34 | 38.19984 | 115.75429 | 17915 ft | 391 kts | 21° |
| 2026-05-08 16:34 | 38.22486 | 115.76769 | 17408 ft | 388 kts | 21° |
| 2026-05-08 16:34 | 38.24955 | 115.78095 | 16902 ft | 384 kts | 21° |
| 2026-05-08 16:34 | 38.27381 | 115.79399 | 16401 ft | 381 kts | 21° |
| 2026-05-08 16:35 | 38.29834 | 115.80718 | 15892 ft | 378 kts | 21° |
| 2026-05-08 16:35 | 38.32213 | 115.81997 | 15398 ft | 375 kts | 21° |
| 2026-05-08 16:35 | 38.34629 | 115.83296 | 14893 ft | 372 kts | 21° |
| 2026-05-08 16:35 | 38.36998 | 115.84570 | 14394 ft | 369 kts | 21° |
| 2026-05-08 16:36 | 38.39354 | 115.85838 | 13896 ft | 366 kts | 21° |
| 2026-05-08 16:36 | 38.41685 | 115.87093 | 13402 ft | 364 kts | 22° |
| 2026-05-08 16:36 | 38.43992 | 115.88334 | 12910 ft | 361 kts | 22° |
| 2026-05-08 16:36 | 38.46308 | 115.89584 | 12414 ft | 359 kts | 22° |
| 2026-05-08 16:37 | 38.48575 | 115.90808 | 11929 ft | 357 kts | 22° |
| 2026-05-08 16:37 | 38.50860 | 115.92042 | 11437 ft | 355 kts | 22° |
| 2026-05-08 16:37 | 38.53137 | 115.93269 | 10942 ft | 353 kts | 22° |
| 2026-05-08 16:37 | 38.55392 | 115.94486 | 10452 ft | 352 kts | 22° |
| 2026-05-08 16:38 | 38.57584 | 115.95672 | 9978 ft | 350 kts | 22° |
| 2026-05-08 16:38 | 38.59862 | 115.96905 | 9482 ft | 349 kts | 23° |
| 2026-05-08 16:38 | 38.62082 | 115.98107 | 8994 ft | 347 kts | 23° |
| 2026-05-08 16:38 | 38.64280 | 115.99299 | 8509 ft | 346 kts | 23° |
| 2026-05-08 16:39 | 38.66513 | 116.00510 | 8019 ft | 345 kts | 23° |
| 2026-05-08 16:39 | 38.68707 | 116.01701 | 7633 ft | 340 kts | 23° |
| 2026-05-08 16:39 | 38.70830 | 116.02856 | 7578 ft | 325 kts | 22° |
| 2026-05-08 16:39 | 38.72856 | 116.03959 | 7578 ft | 308 kts | 23° |
| 2026-05-08 16:40 | 38.74790 | 116.05012 | 7586 ft | 298 kts | 23° |
| 2026-05-08 16:40 | 38.76717 | 116.06060 | 7587 ft | 301 kts | 22° |
| 2026-05-08 16:40 | 38.78612 | 116.07093 | 7593 ft | 299 kts | 22° |
| 2026-05-08 16:40 | 38.80537 | 116.08144 | 7598 ft | 298 kts | 22° |
| 2026-05-08 16:41 | 38.82446 | 116.09187 | 7580 ft | 300 kts | 22° |
| 2026-05-08 16:41 | 38.84365 | 116.10236 | 7585 ft | 300 kts | 22° |
| 2026-05-08 16:41 | 38.86284 | 116.11286 | 7584 ft | 300 kts | 22° |
| 2026-05-08 16:42 | 38.90126 | 116.13391 | 7588 ft | 300 kts | 22° |
| 2026-05-08 16:42 | 38.92025 | 116.14434 | 7588 ft | 299 kts | 22° |
| 2026-05-08 16:42 | 38.93943 | 116.15486 | 7594 ft | 300 kts | 22° |
| 2026-05-08 16:42 | 38.95858 | 116.16537 | 7605 ft | 300 kts | 22° |
| 2026-05-08 16:43 | 38.97798 | 116.17602 | 7598 ft | 301 kts | 22° |
| 2026-05-08 16:43 | 38.99725 | 116.18661 | 7600 ft | 301 kts | 22° |
| 2026-05-08 16:43 | 39.01653 | 116.19720 | 7588 ft | 301 kts | 22° |
| 2026-05-08 16:43 | 39.03555 | 116.20764 | 7588 ft | 299 kts | 22° |
| 2026-05-08 16:44 | 39.05494 | 116.21829 | 7605 ft | 300 kts | 22° |
| 2026-05-08 16:44 | 39.07393 | 116.22875 | 7607 ft | 299 kts | 22° |
| 2026-05-08 16:44 | 39.09307 | 116.23929 | 7592 ft | 299 kts | 22° |
| 2026-05-08 16:44 | 39.11237 | 116.24991 | 7592 ft | 299 kts | 22° |
| 2026-05-08 16:45 | 39.13134 | 116.26034 | 7607 ft | 298 kts | 22° |
| 2026-05-08 16:45 | 39.15043 | 116.27084 | 7597 ft | 300 kts | 22° |
| 2026-05-08 16:45 | 39.16964 | 116.28142 | 7607 ft | 300 kts | 22° |
| 2026-05-08 16:45 | 39.18886 | 116.29202 | 7604 ft | 299 kts | 22° |
| 2026-05-08 16:46 | 39.20811 | 116.30264 | 7617 ft | 300 kts | 22° |
| 2026-05-08 16:46 | 39.22717 | 116.31316 | 7619 ft | 299 kts | 22° |
| 2026-05-08 16:46 | 39.24627 | 116.32372 | 7615 ft | 300 kts | 22° |
| 2026-05-08 16:46 | 39.26550 | 116.33433 | 7618 ft | 297 kts | 22° |
| 2026-05-08 16:47 | 39.28462 | 116.34491 | 7614 ft | 299 kts | 22° |
| 2026-05-08 16:47 | 39.30355 | 116.35538 | 7613 ft | 298 kts | 22° |
| 2026-05-08 16:47 | 39.32266 | 116.36597 | 7627 ft | 299 kts | 22° |
| 2026-05-08 16:47 | 39.34178 | 116.37657 | 7623 ft | 298 kts | 22° |
| 2026-05-08 16:48 | 39.36111 | 116.38730 | 7623 ft | 300 kts | 22° |
| 2026-05-08 16:48 | 39.38029 | 116.39793 | 7627 ft | 298 kts | 22° |
| 2026-05-08 16:48 | 39.39930 | 116.40848 | 7625 ft | 299 kts | 22° |
| 2026-05-08 16:48 | 39.41842 | 116.41909 | 7635 ft | 298 kts | 22° |
| 2026-05-08 16:49 | 39.43759 | 116.42974 | 7631 ft | 298 kts | 22° |
| 2026-05-08 16:49 | 39.45660 | 116.44031 | 7631 ft | 298 kts | 22° |
| 2026-05-08 16:49 | 39.47561 | 116.45088 | 7633 ft | 299 kts | 22° |
| 2026-05-08 16:49 | 39.49466 | 116.46124 | 7633 ft | 298 kts | 21° |
| 2026-05-08 16:50 | 39.51414 | 116.47142 | 7299 ft | 302 kts | 20° |
| 2026-05-08 16:50 | 39.53359 | 116.48144 | 6819 ft | 305 kts | 20° |
| 2026-05-08 16:50 | 39.55351 | 116.49171 | 6333 ft | 308 kts | 21° |
| 2026-05-08 16:50 | 39.57336 | 116.50201 | 5851 ft | 310 kts | 21° |
| 2026-05-08 16:51 | 39.59336 | 116.51244 | 5367 ft | 311 kts | 21° |
| 2026-05-08 16:51 | 39.61339 | 116.52292 | 4844 ft | 308 kts | 21° |
| 2026-05-08 16:51 | 39.63296 | 116.53316 | 4362 ft | 299 kts | 22° |
| 2026-05-08 16:51 | 39.65186 | 116.54306 | 3876 ft | 291 kts | 22° |
| 2026-05-08 16:52 | 39.67049 | 116.55283 | 3434 ft | 282 kts | 23° |
| 2026-05-08 16:52 | 39.68836 | 116.56219 | 3071 ft | 272 kts | 23° |
| 2026-05-08 16:52 | 39.70540 | 116.57114 | 2974 ft | 261 kts | 24° |
| 2026-05-08 16:52 | 39.72231 | 116.58006 | 2927 ft | 257 kts | 24° |
| 2026-05-08 16:53 | 39.75338 | 116.59643 | 2941 ft | 228 kts | 24° |
| 2026-05-08 16:53 | 39.76763 | 116.60394 | 2950 ft | 214 kts | 24° |
| 2026-05-08 16:53 | 39.78104 | 116.61101 | 2951 ft | 203 kts | 24° |
| 2026-05-08 16:54 | 39.79370 | 116.61766 | 2940 ft | 189 kts | 24° |
| 2026-05-08 16:54 | 39.80572 | 116.62404 | 2944 ft | 186 kts | 25° |
| 2026-05-08 16:54 | 39.81778 | 116.63023 | 2938 ft | 185 kts | 19° |
| 2026-05-08 16:54 | 39.83000 | 116.63297 | 2939 ft | 178 kts | 3° |
| 2026-05-08 16:55 | 39.84253 | 116.63258 | 2943 ft | 180 kts | 357° |
| 2026-05-08 16:55 | 39.85498 | 116.63113 | 2941 ft | 179 kts | 355° |
| 2026-05-08 16:55 | 39.86742 | 116.62933 | 2941 ft | 180 kts | 354° |
| 2026-05-08 16:55 | 39.87972 | 116.62745 | 2937 ft | 172 kts | 354° |
| 2026-05-08 16:56 | 39.89116 | 116.62567 | 2965 ft | 165 kts | 354° |
| 2026-05-08 16:56 | 39.90243 | 116.62393 | 2930 ft | 163 kts | 355° |
| 2026-05-08 16:56 | 39.91378 | 116.62217 | 2874 ft | 165 kts | 354° |
| 2026-05-08 16:56 | 39.92498 | 116.62042 | 2641 ft | 166 kts | 355° |
| 2026-05-08 16:57 | 39.93626 | 116.61866 | 2420 ft | 162 kts | 355° |
| 2026-05-08 16:57 | 39.94758 | 116.61691 | 2204 ft | 164 kts | 355° |
| 2026-05-08 16:57 | 39.95878 | 116.61517 | 1994 ft | 162 kts | 355° |
| 2026-05-08 16:57 | 39.97011 | 116.61341 | 1775 ft | 162 kts | 355° |
| 2026-05-08 16:58 | 39.98118 | 116.61170 | 1568 ft | 161 kts | 355° |
| 2026-05-08 16:58 | 39.99221 | 116.60998 | 1326 ft | 154 kts | 355° |
| 2026-05-08 16:58 | 40.00234 | 116.60838 | 1131 ft | 143 kts | 356° |
| 2026-05-08 16:58 | 40.01233 | 116.60687 | 995 ft | 145 kts | 355° |
| 2026-05-08 16:59 | 40.02260 | 116.60516 | 749 ft | 148 kts | 355° |
| 2026-05-08 16:59 | 40.03250 | 116.60375 | 592 ft | 145 kts | 356° |
| 2026-05-08 16:59 | 40.04270 | 116.60209 | 410 ft | 148 kts | 353° |
| 2026-05-08 16:59 | 40.05293 | 116.60049 | 215 ft | 146 kts | 354° |
| 2026-05-08 17:00 | 40.06268 | 116.59923 | 122 ft | 129 kts | 349° |
| 2026-05-08 17:00 | 40.06957 | 116.59789 | 122 ft | 70 kts | 355° |
| 2026-05-08 17:00 | 40.07325 | 116.59734 | 122 ft | 44 kts | 351° |
| 2026-05-08 17:00 | 40.07533 | 116.59707 | 122 ft | 24 kts | 1° |
| 2026-05-08 17:01 | 40.07690 | 116.59744 | 122 ft | 19 kts | 19° |
| 2026-05-08 17:01 | 40.07782 | 116.59793 | 122 ft | 13 kts | 32° |
| 2026-05-08 17:01 | 40.07811 | 116.59893 | 122 ft | 11 kts | 83° |
| 2026-05-08 17:01 | 40.07811 | 116.59982 | 122 ft | 8 kts | 113° |
| 2026-05-08 17:02 | 40.07749 | 116.60020 | 122 ft | 13 kts | 173° |
| 2026-05-08 17:02 | 40.07643 | 116.60051 | 122 ft | 17 kts | 134° |
| 2026-05-08 17:02 | 40.07664 | 116.60133 | 122 ft | 5 kts | 23° |
| 2026-05-08 17:02 | 40.07701 | 116.60154 | 122 ft | 3 kts | 22° |
| 2026-05-08 17:03 | 40.07707 | 116.60157 | 122 ft | 0 kts | 22° |